Connexion S'enregistrer

Connexion à votre compte

Identifiant
Mot de passe
Maintenir la connexion active sur ce site

Créer un compte

Pour valider ce formulaire, vous devez remplir tous les champs.
Nom
Identifiant
Mot de passe
Répétez le mot de passe
Adresse e-mail
Répétez l'adresse e-mail

Veuillez saisir l'adresse e-mail associée à votre compte d'utilisateur. Un code de vérification vous sera adressé. Lorsque vous le recevrez, vous pourrez choisir un nouveau mot de passe

Nous contacter

 Téléphone : +33 (0)4 79 54 41 81

Coordonnées détaillées et accès : cliquez ici

 
LFLB °C
    Ferienhaus Ostsee
[source: ADDS]
METAR
LFLB 240600Z AUTO 00000KT 9000 NSC 11/10 Q1021 NOSIG =
TAF
TAF LFLB 240500Z 2406/2506 VRB03KT CAVOK BECMG 2407/2409 35006KT BECMG 2418/2420 VRB03KT BECMG 2422/2424 20005KT =
SR / SS: 04:34 / 18:34 UTC (Lever/Coucher du soleil le 2018-04-24)
JSN Boot template designed by JoomlaShine.com